Hibiny — HIBINY — position and weather

sailwx.info

Track history (hours):
 
Tides and Currents Weather Stations Pressure Air Temp Water Temp Dewpoint Dewpoint Depression Visibility Wind Speed Wind Dir Waves Ship Positions

Hibiny

Last reported at 2018-Jun-17 17:56 UTC. Time now 2018-Jun-18 09:14 UTC.
Position N 47°52' E 035°06'.

Length 38 m.

Type: Passenger vessel. MMSI: 272152200.

Date/timePositionNaut miles runAvg speedWind from/ knotsBaromVisibWave heightAir tempDewpointWater temp
2018-Jun-17 17:56N 47°52' E 035°06'0 0.8
2018-Jun-17 17:30N 47°52' E 035°06'1 2.6
2018-Jun-17 17:00N 47°51' E 035°05'4 7.4
2018-Jun-17 16:30N 47°48' E 035°10'0 0.4
2018-Jun-17 16:00N 47°48' E 035°10'2 3.8
2018-Jun-17 15:30N 47°48' E 035°07'4 7.8
2018-Jun-17 15:00N 47°50' E 035°03'2 3.4
2018-Jun-17 14:31N 47°50' E 035°06'3 6.5
2018-Jun-17 14:00N 47°48' E 035°10'0 0.3
2018-Jun-17 13:30N 47°48' E 035°10'2 4.1
2018-Jun-17 13:00N 47°48' E 035°07'4 7.3
2018-Jun-17 12:30N 47°50' E 035°03'2 3.6
2018-Jun-17 12:00N 47°50' E 035°06'3 5.9
2018-Jun-17 11:28N 47°48' E 035°10'1 2.5
2018-Jun-17 11:00N 47°47' E 035°10'3 5.7
2018-Jun-17 10:30N 47°48' E 035°06'3 6.8
2018-Jun-17 10:00N 47°51' E 035°03'2 2.9
2018-Jun-17 09:29N 47°52' E 035°06'0 0.5
2018-Jun-17 08:58N 47°52' E 035°06'0 0.0
2018-Jun-16 18:00N 47°52' E 035°06'0 0.8
2018-Jun-16 17:28N 47°52' E 035°05'1 2.3
2018-Jun-16 17:00N 47°51' E 035°05'4 7.1
2018-Jun-16 16:28N 47°48' E 035°10'0 0.1
2018-Jun-16 16:00N 47°48' E 035°10'2 4.2
2018-Jun-16 15:30N 47°48' E 035°07'3 7.0
2018-Jun-16 15:00N 47°50' E 035°03'2 3.8
2018-Jun-16 14:30N 47°50' E 035°06'3 5.9
2018-Jun-16 13:59N 47°48' E 035°10'0 0.7
2018-Jun-16 13:30N 47°48' E 035°10'2 4.1
2018-Jun-16 13:00N 47°48' E 035°07'4 7.4
2018-Jun-16 12:30N 47°51' E 035°03'2 4.6
2018-Jun-16 12:00N 47°50' E 035°06'3 5.3
2018-Jun-16 11:29N 47°48' E 035°10'2 4.2
2018-Jun-16 11:00N 47°46' E 035°09'3 6.7
2018-Jun-16 10:29N 47°49' E 035°05'3 6.2
2018-Jun-16 10:00N 47°52' E 035°04'1 2.4
2018-Jun-16 09:30N 47°52' E 035°06'0 0.6
2018-Jun-16 09:00N 47°52' E 035°06'0 0.0
2018-Jun-16 08:30N 47°52' E 035°06'0 0.0
2018-Jun-15 17:01N 47°52' E 035°06'0 1.9
2018-Jun-15 17:00N 47°52' E 035°06'0 0.6
2018-Jun-15 16:28N 47°52' E 035°05'2 3.4
2018-Jun-15 15:59N 47°50' E 035°06'3 1.9
2018-Jun-15 14:17N 47°48' E 035°10'1 3.9
2018-Jun-15 14:01N 47°47' E 035°10'3 5.6
2018-Jun-15 13:30N 47°48' E 035°06'4 7.1
2018-Jun-15 13:00N 47°52' E 035°04'3 6.7
2018-Jun-15 12:30N 47°49' E 035°07'2 3.4
2018-Jun-15 11:58N 47°48' E 035°10'0 0.0
2018-Jun-14 13:54N 47°48' E 035°10'0 1.0
2018-Jun-14 13:30N 47°48' E 035°10'2 4.4
2018-Jun-14 13:00N 47°48' E 035°06'4 7.7
2018-Jun-14 12:30N 47°51' E 035°03'3 5.2
2018-Jun-14 12:00N 47°50' E 035°06'3 4.8
2018-Jun-14 11:27N 47°48' E 035°10'0 0.0
2018-Jun-14 11:00N 47°48' E 035°10'0 0.0
2018-Jun-13 14:21N 47°48' E 035°10'0 0.8
2018-Jun-13 14:00N 47°48' E 035°10'2 3.9
2018-Jun-13 13:30N 47°48' E 035°07'4 7.6
2018-Jun-13 13:00N 47°50' E 035°03'2 3.4
2018-Jun-13 12:30N 47°50' E 035°06'3 2.2
2018-Jun-13 10:59N 47°48' E 035°10'2 3.9
2018-Jun-13 10:30N 47°47' E 035°07'4 8.4
2018-Jun-13 10:00N 47°50' E 035°03'2 3.7
2018-Jun-13 09:30N 47°50' E 035°06'3 5.8
2018-Jun-13 08:58N 47°48' E 035°10'0 0.0
2018-Jun-13 08:28N 47°48' E 035°10'  
2018-Jun-10 16:13N 47°48' E 035°10'0 1.5
2018-Jun-10 15:59N 47°48' E 035°10'2 4.1
2018-Jun-10 15:30N 47°48' E 035°07'4 8.3
2018-Jun-10 15:00N 47°51' E 035°03'5 5.0
2018-Jun-10 13:58N 47°48' E 035°10'0 0.0
2018-Jun-10 13:28N 47°48' E 035°10'2 4.0
2018-Jun-10 13:00N 47°47' E 035°08'4 8.6
2018-Jun-10 12:30N 47°50' E 035°03'2 3.2
2018-Jun-10 12:00N 47°50' E 035°06'3 6.1
2018-Jun-10 11:27N 47°48' E 035°10'1 3.3
2018-Jun-10 11:00N 47°47' E 035°09'4 7.6
2018-Jun-10 10:30N 47°49' E 035°05'2 4.3
2018-Jun-10 10:00N 47°51' E 035°05'1 1.2
2018-Jun-10 09:21N 47°52' E 035°06'0 0.8
2018-Jun-10 09:00N 47°52' E 035°06'0 0.0
2018-Jun-10 08:24N 47°52' E 035°06'0 0.0
2018-Jun-09 18:02N 47°52' E 035°06'0 0.2
2018-Jun-09 17:59N 47°52' E 035°06'0 0.8
2018-Jun-09 17:30N 47°52' E 035°06'1 2.6
2018-Jun-09 17:00N 47°51' E 035°05'4 6.8
2018-Jun-09 16:29N 47°48' E 035°10'0 0.1
2018-Jun-09 16:01N 47°48' E 035°10'5 5.1
2018-Jun-09 15:00N 47°51' E 035°03'2 4.3
2018-Jun-09 14:30N 47°50' E 035°06'3 5.5
2018-Jun-09 13:59N 47°48' E 035°10'1 2.7
2018-Jun-09 13:28N 47°47' E 035°09'3 6.2
2018-Jun-09 13:00N 47°48' E 035°06'3 6.8
2018-Jun-09 12:30N 47°51' E 035°03'3 6.0
2018-Jun-09 12:00N 47°50' E 035°07'2 4.3
2018-Jun-09 11:29N 47°48' E 035°10'2 4.1
2018-Jun-09 11:00N 47°47' E 035°09'4 8.2
2018-Jun-09 10:30N 47°49' E 035°04'2 3.7
2018-Jun-09 10:00N 47°51' E 035°05'1 1.6
2018-Jun-09 09:29N 47°52' E 035°06'0 0.6
2018-Jun-09 09:00N 47°52' E 035°06'0 0.0
2018-Jun-09 08:30N 47°52' E 035°06'0 0.0
2018-Jun-08 17:04N 47°52' E 035°06'0 0.9
2018-Jun-08 17:00N 47°52' E 035°06'0 0.6
2018-Jun-08 16:25N 47°52' E 035°05'1 3.3
2018-Jun-08 16:01N 47°50' E 035°05'4 1.4
2018-Jun-08 13:29N 47°48' E 035°10'2 3.7
2018-Jun-08 12:57N 47°48' E 035°07'4 7.8
2018-Jun-08 12:30N 47°50' E 035°03'2 3.2
2018-Jun-08 12:00N 47°50' E 035°06'3 6.7
2018-Jun-08 11:30N 47°48' E 035°10'0 0.5
2018-Jun-08 11:00N 47°48' E 035°10'0 0.1
2018-Jun-08 08:34N 47°48' E 035°10'0 4.2
2018-Jun-08 08:30N 47°48' E 035°10'2 3.5
2018-Jun-08 07:58N 47°47' E 035°09'2 3.5
2018-Jun-08 07:30N 47°48' E 035°10'  
Track history (hours):
 
Tides and Currents Weather Stations Pressure Air Temp Water Temp Dewpoint Dewpoint Depression Visibility Wind Speed Wind Dir Waves Ship Positions

Hibiny

Last reported at 2018-Jun-17 17:56 UTC. Time now 2018-Jun-18 09:14 UTC.
Position N 47°52' E 035°06'.

Length 38 m.

Type: Passenger vessel. MMSI: 272152200.

Date/timePositionNaut miles runAvg speedWind from/ knotsBaromVisibWave heightAir tempDewpointWater temp
2018-Jun-17 17:56N 47°52' E 035°06'0 0.8
2018-Jun-17 17:30N 47°52' E 035°06'1 2.6
2018-Jun-17 17:00N 47°51' E 035°05'4 7.4
2018-Jun-17 16:30N 47°48' E 035°10'0 0.4
2018-Jun-17 16:00N 47°48' E 035°10'2 3.8
2018-Jun-17 15:30N 47°48' E 035°07'4 7.8
2018-Jun-17 15:00N 47°50' E 035°03'2 3.4
2018-Jun-17 14:31N 47°50' E 035°06'3 6.5
2018-Jun-17 14:00N 47°48' E 035°10'0 0.3
2018-Jun-17 13:30N 47°48' E 035°10'2 4.1
2018-Jun-17 13:00N 47°48' E 035°07'4 7.3
2018-Jun-17 12:30N 47°50' E 035°03'2 3.6
2018-Jun-17 12:00N 47°50' E 035°06'3 5.9
2018-Jun-17 11:28N 47°48' E 035°10'1 2.5
2018-Jun-17 11:00N 47°47' E 035°10'3 5.7
2018-Jun-17 10:30N 47°48' E 035°06'3 6.8
2018-Jun-17 10:00N 47°51' E 035°03'2 2.9
2018-Jun-17 09:29N 47°52' E 035°06'0 0.5
2018-Jun-17 08:58N 47°52' E 035°06'0 0.0
2018-Jun-16 18:00N 47°52' E 035°06'0 0.8
2018-Jun-16 17:28N 47°52' E 035°05'1 2.3
2018-Jun-16 17:00N 47°51' E 035°05'4 7.1
2018-Jun-16 16:28N 47°48' E 035°10'0 0.1
2018-Jun-16 16:00N 47°48' E 035°10'2 4.2
2018-Jun-16 15:30N 47°48' E 035°07'3 7.0
2018-Jun-16 15:00N 47°50' E 035°03'2 3.8
2018-Jun-16 14:30N 47°50' E 035°06'3 5.9
2018-Jun-16 13:59N 47°48' E 035°10'0 0.7
2018-Jun-16 13:30N 47°48' E 035°10'2 4.1
2018-Jun-16 13:00N 47°48' E 035°07'4 7.4
2018-Jun-16 12:30N 47°51' E 035°03'2 4.6
2018-Jun-16 12:00N 47°50' E 035°06'3 5.3
2018-Jun-16 11:29N 47°48' E 035°10'2 4.2
2018-Jun-16 11:00N 47°46' E 035°09'3 6.7
2018-Jun-16 10:29N 47°49' E 035°05'3 6.2
2018-Jun-16 10:00N 47°52' E 035°04'1 2.4
2018-Jun-16 09:30N 47°52' E 035°06'0 0.6
2018-Jun-16 09:00N 47°52' E 035°06'0 0.0
2018-Jun-16 08:30N 47°52' E 035°06'0 0.0
2018-Jun-15 17:01N 47°52' E 035°06'0 1.9
2018-Jun-15 17:00N 47°52' E 035°06'0 0.6
2018-Jun-15 16:28N 47°52' E 035°05'2 3.4
2018-Jun-15 15:59N 47°50' E 035°06'3 1.9
2018-Jun-15 14:17N 47°48' E 035°10'1 3.9
2018-Jun-15 14:01N 47°47' E 035°10'3 5.6
2018-Jun-15 13:30N 47°48' E 035°06'4 7.1
2018-Jun-15 13:00N 47°52' E 035°04'3 6.7
2018-Jun-15 12:30N 47°49' E 035°07'2 3.4
2018-Jun-15 11:58N 47°48' E 035°10'0 0.0
2018-Jun-14 13:54N 47°48' E 035°10'0 1.0
2018-Jun-14 13:30N 47°48' E 035°10'2 4.4
2018-Jun-14 13:00N 47°48' E 035°06'4 7.7
2018-Jun-14 12:30N 47°51' E 035°03'3 5.2
2018-Jun-14 12:00N 47°50' E 035°06'3 4.8
2018-Jun-14 11:27N 47°48' E 035°10'0 0.0
2018-Jun-14 11:00N 47°48' E 035°10'0 0.0
2018-Jun-13 14:21N 47°48' E 035°10'0 0.8
2018-Jun-13 14:00N 47°48' E 035°10'2 3.9
2018-Jun-13 13:30N 47°48' E 035°07'4 7.6
2018-Jun-13 13:00N 47°50' E 035°03'2 3.4
2018-Jun-13 12:30N 47°50' E 035°06'3 2.2
2018-Jun-13 10:59N 47°48' E 035°10'2 3.9
2018-Jun-13 10:30N 47°47' E 035°07'4 8.4
2018-Jun-13 10:00N 47°50' E 035°03'2 3.7
2018-Jun-13 09:30N 47°50' E 035°06'3 5.8
2018-Jun-13 08:58N 47°48' E 035°10'0 0.0
2018-Jun-13 08:28N 47°48' E 035°10'  
2018-Jun-10 16:13N 47°48' E 035°10'0 1.5
2018-Jun-10 15:59N 47°48' E 035°10'2 4.1
2018-Jun-10 15:30N 47°48' E 035°07'4 8.3
2018-Jun-10 15:00N 47°51' E 035°03'5 5.0
2018-Jun-10 13:58N 47°48' E 035°10'0 0.0
2018-Jun-10 13:28N 47°48' E 035°10'2 4.0
2018-Jun-10 13:00N 47°47' E 035°08'4 8.6
2018-Jun-10 12:30N 47°50' E 035°03'2 3.2
2018-Jun-10 12:00N 47°50' E 035°06'3 6.1
2018-Jun-10 11:27N 47°48' E 035°10'1 3.3
2018-Jun-10 11:00N 47°47' E 035°09'4 7.6
2018-Jun-10 10:30N 47°49' E 035°05'2 4.3
2018-Jun-10 10:00N 47°51' E 035°05'1 1.2
2018-Jun-10 09:21N 47°52' E 035°06'0 0.8
2018-Jun-10 09:00N 47°52' E 035°06'0 0.0
2018-Jun-10 08:24N 47°52' E 035°06'0 0.0
2018-Jun-09 18:02N 47°52' E 035°06'0 0.2
2018-Jun-09 17:59N 47°52' E 035°06'0 0.8
2018-Jun-09 17:30N 47°52' E 035°06'1 2.6
2018-Jun-09 17:00N 47°51' E 035°05'4 6.8
2018-Jun-09 16:29N 47°48' E 035°10'0 0.1
2018-Jun-09 16:01N 47°48' E 035°10'5 5.1
2018-Jun-09 15:00N 47°51' E 035°03'2 4.3
2018-Jun-09 14:30N 47°50' E 035°06'3 5.5
2018-Jun-09 13:59N 47°48' E 035°10'1 2.7
2018-Jun-09 13:28N 47°47' E 035°09'3 6.2
2018-Jun-09 13:00N 47°48' E 035°06'3 6.8
2018-Jun-09 12:30N 47°51' E 035°03'3 6.0
2018-Jun-09 12:00N 47°50' E 035°07'2 4.3
2018-Jun-09 11:29N 47°48' E 035°10'2 4.1
2018-Jun-09 11:00N 47°47' E 035°09'4 8.2
2018-Jun-09 10:30N 47°49' E 035°04'2 3.7
2018-Jun-09 10:00N 47°51' E 035°05'1 1.6
2018-Jun-09 09:29N 47°52' E 035°06'0 0.6
2018-Jun-09 09:00N 47°52' E 035°06'0 0.0
2018-Jun-09 08:30N 47°52' E 035°06'0 0.0
2018-Jun-08 17:04N 47°52' E 035°06'0 0.9
2018-Jun-08 17:00N 47°52' E 035°06'0 0.6
2018-Jun-08 16:25N 47°52' E 035°05'1 3.3
2018-Jun-08 16:01N 47°50' E 035°05'4 1.4
2018-Jun-08 13:29N 47°48' E 035°10'2 3.7
2018-Jun-08 12:57N 47°48' E 035°07'4 7.8
2018-Jun-08 12:30N 47°50' E 035°03'2 3.2
2018-Jun-08 12:00N 47°50' E 035°06'3 6.7
2018-Jun-08 11:30N 47°48' E 035°10'0 0.5
2018-Jun-08 11:00N 47°48' E 035°10'0 0.1
2018-Jun-08 08:34N 47°48' E 035°10'0 4.2
2018-Jun-08 08:30N 47°48' E 035°10'2 3.5
2018-Jun-08 07:58N 47°47' E 035°09'2 3.5
2018-Jun-08 07:30N 47°48' E 035°10'  

Dump ship's entire track history